Time;durP1;ratioP1;P1;durP2;ratioP2;P2;SDS_P1;SDS_P2;PMS_P1;PMS_P2;Temp;Humidity;BMP_temperature;BMP_pressure;BME280_temperature;BME280_humidity;BME280_pressure;Samples;Min_cycle;Max_cycle;Signal;HPM_P1;HPM_P2
2023/08/22 00:01:03;;;;;;;;;1.25;1.25;;;;;23.87;46.08;101775.28;5092215;27;45328;-59
2023/08/22 00:03:29;;;;;;;;;1.00;0.75;;;;;23.85;46.15;101773.69;5091861;27;45287;-61
2023/08/22 00:05:55;;;;;;;;;1.75;0.25;;;;;23.77;46.34;101780.66;5086897;27;45409;-58
2023/08/22 00:08:20;;;;;;;;;0.75;0.50;;;;;23.68;47.07;101781.50;5086723;27;45762;-58
2023/08/22 00:10:46;;;;;;;;;2.00;2.00;;;;;23.55;47.35;101779.03;5089124;27;69009;-59
2023/08/22 00:13:11;;;;;;;;;1.00;1.00;;;;;23.45;47.21;101775.44;5085754;27;71839;-59
2023/08/22 00:15:36;;;;;;;;;1.00;0.50;;;;;23.36;47.34;101781.69;5087388;27;45279;-59
2023/08/22 00:18:02;;;;;;;;;1.00;1.00;;;;;23.33;47.47;101790.13;5092112;27;45457;-59
2023/08/22 00:20:28;;;;;;;;;2.00;2.00;;;;;23.33;47.32;101785.53;5091389;27;46117;-59
2023/08/22 00:22:53;;;;;;;;;1.00;1.00;;;;;23.36;47.08;101792.53;5089087;27;45338;-59
2023/08/22 00:25:18;;;;;;;;;3.50;0.00;;;;;23.41;47.13;101787.56;5096584;27;45413;-59
2023/08/22 00:27:44;;;;;;;;;1.00;1.00;;;;;23.38;48.25;101788.69;5085905;27;45453;-60
2023/08/22 00:30:09;;;;;;;;;5.00;1.75;;;;;23.29;47.73;101782.22;5094340;27;70104;-60
2023/08/22 00:32:35;;;;;;;;;1.25;0.50;;;;;23.31;47.91;101781.25;5086277;27;45374;-59
2023/08/22 00:35:00;;;;;;;;;1.00;1.00;;;;;23.27;48.08;101789.66;5096083;27;45282;-60
2023/08/22 00:37:26;;;;;;;;;1.50;0.00;;;;;23.26;48.24;101787.09;5088989;27;66861;-59
2023/08/22 00:39:52;;;;;;;;;2.00;1.75;;;;;23.21;48.81;101783.94;5071571;28;45443;-60
2023/08/22 00:42:18;;;;;;;;;1.75;0.00;;;;;23.08;48.49;101784.13;5089860;27;45344;-61
2023/08/22 00:44:43;;;;;;;;;0.75;0.75;;;;;23.04;49.58;101782.69;5075791;28;45324;-61
2023/08/22 00:47:09;;;;;;;;;2.75;2.00;;;;;23.01;49.33;101780.22;5094829;27;45417;-61
2023/08/22 00:49:34;;;;;;;;;2.25;2.25;;;;;22.93;50.44;101778.16;5087749;27;45339;-61
2023/08/22 00:52:01;;;;;;;;;1.25;1.25;;;;;22.86;50.26;101771.59;5095088;27;63252;-61
2023/08/22 00:54:27;;;;;;;;;2.00;1.00;;;;;22.84;49.48;101771.72;5082941;27;45423;-61
2023/08/22 00:56:53;;;;;;;;;1.00;1.00;;;;;22.92;48.92;101777.31;5091566;27;45386;-61
2023/08/22 00:59:19;;;;;;;;;1.00;1.00;;;;;23.04;49.31;101777.25;5087534;27;45478;-61
2023/08/22 01:01:44;;;;;;;;;1.00;1.00;;;;;23.10;49.22;101773.97;5094541;27;45561;-61
2023/08/22 01:04:09;;;;;;;;;1.33;1.33;;;;;23.19;48.97;101780.47;5091569;27;66676;-61
2023/08/22 01:06:51;;;;;;;;;1.00;1.00;;;;;23.26;49.39;101768.94;5089278;27;68370;-60
2023/08/22 01:09:29;;;;;;;;;1.25;1.00;;;;;23.23;49.23;101771.06;5076431;27;45471;-60
2023/08/22 01:12:02;;;;;;;;;1.00;1.00;;;;;23.17;50.01;101764.34;5055681;27;45488;-60
2023/08/22 01:14:28;;;;;;;;;1.00;1.00;;;;;23.15;49.24;101760.03;5077086;27;45552;-60
2023/08/22 01:16:54;;;;;;;;;0.50;0.00;;;;;23.16;49.20;101757.19;5071121;27;67154;-60
2023/08/22 01:19:20;;;;;;;;;2.00;1.00;;;;;23.12;51.24;101763.84;5093121;27;70263;-60
2023/08/22 01:21:50;;;;;;;;;1.00;1.00;;;;;23.04;50.13;101761.81;5073277;27;65168;-60
2023/08/22 01:24:15;;;;;;;;;1.50;1.00;;;;;22.97;49.66;101757.91;5075302;27;46044;-60
2023/08/22 01:26:40;;;;;;;;;1.75;1.00;;;;;22.93;49.66;101757.34;5092552;27;64947;-60
2023/08/22 01:29:10;;;;;;;;;2.25;1.00;;;;;22.92;49.99;101752.91;5086362;27;46007;-60
2023/08/22 01:31:47;;;;;;;;;1.75;0.75;;;;;22.95;49.85;101751.78;5072150;27;45625;-60
2023/08/22 01:34:28;;;;;;;;;2.00;2.00;;;;;22.99;49.68;101744.25;5089721;27;45805;-60
2023/08/22 01:36:54;;;;;;;;;1.25;1.25;;;;;23.03;50.20;101734.84;5086849;27;45524;-60
2023/08/22 01:39:22;;;;;;;;;2.00;1.00;;;;;23.01;50.04;101737.69;5083492;27;45474;-60
2023/08/22 01:41:48;;;;;;;;;1.00;1.00;;;;;23.00;49.95;101737.81;5087602;27;45443;-60
2023/08/22 01:44:14;;;;;;;;;2.25;2.00;;;;;22.98;49.97;101740.66;5075218;27;45507;-60
2023/08/22 01:46:39;;;;;;;;;0.50;0.50;;;;;22.97;49.87;101736.22;5096018;27;45442;-60
2023/08/22 01:49:04;;;;;;;;;2.00;0.50;;;;;22.96;50.55;101742.66;5090927;27;71140;-61
2023/08/22 01:51:30;;;;;;;;;2.50;1.00;;;;;22.91;50.84;101732.19;5090708;27;73336;-60
2023/08/22 01:53:55;;;;;;;;;2.75;1.00;;;;;22.88;50.80;101728.91;5081340;27;64740;-60
2023/08/22 01:56:20;;;;;;;;;1.00;1.00;;;;;22.84;50.72;101727.44;5086730;27;58965;-60
2023/08/22 01:58:46;;;;;;;;;1.00;1.00;;;;;22.80;50.46;101743.13;5086327;27;67137;-61
2023/08/22 02:01:12;;;;;;;;;2.00;1.00;;;;;22.80;50.62;101746.72;5092665;27;70890;-60
2023/08/22 02:03:41;;;;;;;;;0.00;0.00;;;;;22.86;50.44;101742.59;5092212;27;45369;-60
2023/08/22 02:06:06;;;;;;;;;1.25;1.00;;;;;22.93;50.70;101741.06;5094525;27;45644;-61
2023/08/22 02:08:32;;;;;;;;;0.25;0.25;;;;;22.91;50.94;101732.19;5093425;27;45517;-60
2023/08/22 02:10:57;;;;;;;;;1.00;1.00;;;;;22.86;50.27;101731.75;5091878;27;45446;-60
2023/08/22 02:13:22;;;;;;;;;1.00;1.00;;;;;22.84;50.56;101722.91;5072159;27;69164;-61
2023/08/22 02:15:48;;;;;;;;;1.25;1.25;;;;;22.81;50.80;101725.88;5096923;27;49050;-61
2023/08/22 02:18:14;;;;;;;;;3.00;2.00;;;;;22.77;50.84;101725.28;5094066;27;46270;-61
2023/08/22 02:20:39;;;;;;;;;3.50;1.00;;;;;22.75;51.65;101723.69;5091016;27;45226;-60
2023/08/22 02:23:04;;;;;;;;;1.00;1.00;;;;;22.72;51.50;101723.97;5088615;27;45865;-61
2023/08/22 02:25:33;;;;;;;;;2.00;2.00;;;;;22.71;51.64;101727.66;5086497;27;69659;-61
2023/08/22 02:27:58;;;;;;;;;1.25;1.00;;;;;22.69;51.16;101725.09;5092409;27;46228;-60
2023/08/22 02:30:24;;;;;;;;;2.00;2.00;;;;;22.66;51.10;101729.91;5082371;27;45685;-61
2023/08/22 02:32:49;;;;;;;;;1.25;1.25;;;;;22.67;51.79;101734.34;5081292;27;62370;-60
2023/08/22 02:35:15;;;;;;;;;1.00;1.00;;;;;22.68;51.75;101714.38;5081582;27;63088;-61
2023/08/22 02:37:40;;;;;;;;;3.25;2.00;;;;;22.62;52.14;101707.66;5091243;27;45472;-61
2023/08/22 02:40:09;;;;;;;;;0.50;0.50;;;;;22.51;51.78;101714.00;5092286;27;68920;-60
2023/08/22 02:42:34;;;;;;;;;1.00;1.00;;;;;22.40;52.34;101712.22;5090677;27;45401;-60
2023/08/22 02:44:59;;;;;;;;;2.33;2.33;;;;;22.39;53.29;101701.53;5090678;27;45483;-60
2023/08/22 02:47:25;;;;;;;;;0.67;0.33;;;;;22.35;52.02;101714.44;5091378;27;45886;-60
2023/08/22 02:49:50;;;;;;;;;1.00;1.00;;;;;22.30;52.21;101708.53;5095212;27;55081;-61
2023/08/22 02:52:15;;;;;;;;;2.00;1.00;;;;;22.27;52.36;101714.25;5059549;27;68782;-60
2023/08/22 02:54:41;;;;;;;;;1.75;1.75;;;;;22.24;52.35;101709.94;5075697;27;45453;-60
2023/08/22 02:57:07;;;;;;;;;3.00;1.00;;;;;22.24;52.52;101709.06;5087438;27;67962;-61
2023/08/22 02:59:32;;;;;;;;;0.50;0.50;;;;;22.21;52.41;101707.47;5090123;27;45421;-60
2023/08/22 03:01:58;;;;;;;;;0.50;0.50;;;;;22.24;52.10;101707.25;5088767;27;45889;-60
2023/08/22 03:04:23;;;;;;;;;1.00;1.00;;;;;22.34;52.81;101714.56;5087448;27;45879;-60
2023/08/22 03:06:48;;;;;;;;;1.00;1.00;;;;;22.37;52.14;101714.31;5082863;27;72193;-61
2023/08/22 03:09:14;;;;;;;;;3.00;1.25;;;;;22.38;52.55;101716.06;5094538;27;68371;-60
2023/08/22 03:11:39;;;;;;;;;1.00;1.00;;;;;22.37;52.59;101722.47;5084547;27;67533;-60
2023/08/22 03:14:04;;;;;;;;;0.00;0.00;;;;;22.37;52.32;101715.22;5088732;27;45705;-60
2023/08/22 03:16:30;;;;;;;;;1.75;1.50;;;;;22.34;52.86;101715.41;5061200;27;49501;-60
2023/08/22 03:18:57;;;;;;;;;1.00;1.00;;;;;22.33;52.28;101710.97;5078106;27;70195;-61
2023/08/22 03:21:22;;;;;;;;;1.00;1.00;;;;;22.36;52.82;101707.19;5093211;27;45392;-61
2023/08/22 03:23:47;;;;;;;;;1.25;1.25;;;;;22.40;52.81;101706.81;5084790;27;46129;-61
2023/08/22 03:26:13;;;;;;;;;3.67;2.00;;;;;22.40;52.92;101701.38;5089203;27;67076;-60
2023/08/22 03:28:39;;;;;;;;;3.00;3.00;;;;;22.42;52.44;101707.53;5096484;27;45458;-60
2023/08/22 03:31:04;;;;;;;;;4.00;1.75;;;;;22.45;52.41;101703.72;5095476;27;56851;-61
2023/08/22 03:33:30;;;;;;;;;0.50;0.25;;;;;22.46;52.58;101705.41;5086560;27;45371;-61
2023/08/22 03:35:56;;;;;;;;;1.00;1.00;;;;;22.51;52.95;101705.00;5065396;27;46247;-61
2023/08/22 03:38:22;;;;;;;;;2.00;2.00;;;;;22.52;52.88;101701.31;5069664;27;45620;-60
2023/08/22 03:40:48;;;;;;;;;2.00;2.00;;;;;22.53;53.11;101712.03;5090194;27;45587;-61
2023/08/22 03:43:15;;;;;;;;;2.00;2.00;;;;;22.48;52.94;101714.28;5082609;27;45533;-60
2023/08/22 03:45:41;;;;;;;;;3.00;2.00;;;;;22.43;53.26;101719.22;5087952;27;45979;-60
2023/08/22 03:48:07;;;;;;;;;2.00;1.00;;;;;22.41;52.88;101716.66;5082022;27;45988;-60
2023/08/22 03:50:32;;;;;;;;;2.00;2.00;;;;;22.46;52.60;101716.25;5069148;27;45564;-60
2023/08/22 03:52:57;;;;;;;;;2.25;2.25;;;;;22.47;53.05;101712.53;5092923;27;45792;-60
2023/08/22 03:55:23;;;;;;;;;1.00;1.00;;;;;22.46;52.84;101724.38;5089175;27;68225;-60
2023/08/22 03:57:48;;;;;;;;;1.50;1.50;;;;;22.43;52.54;101708.38;5079526;27;45334;-61
2023/08/22 04:00:14;;;;;;;;;2.75;2.25;;;;;22.42;52.62;101712.09;5094085;27;45563;-60
2023/08/22 04:02:39;;;;;;;;;1.00;1.00;;;;;22.42;53.16;101720.22;5085523;27;45746;-60
2023/08/22 04:05:05;;;;;;;;;3.25;2.00;;;;;22.36;53.30;101718.91;5068481;27;65168;-60
2023/08/22 04:07:30;;;;;;;;;2.00;1.00;;;;;22.35;52.85;101717.16;5084574;27;45484;-60
2023/08/22 04:09:56;;;;;;;;;3.00;1.75;;;;;22.42;53.12;101715.66;5082434;27;66304;-60
2023/08/22 04:12:21;;;;;;;;;1.25;1.25;;;;;22.48;53.10;101713.44;5086341;27;64244;-60
2023/08/22 04:14:47;;;;;;;;;2.00;2.00;;;;;22.55;53.13;101715.44;5070520;27;52838;-61
2023/08/22 04:17:12;;;;;;;;;3.00;3.00;;;;;22.58;53.09;101712.47;5081130;27;45441;-60
2023/08/22 04:19:38;;;;;;;;;1.50;1.50;;;;;22.58;53.02;101709.78;5096607;27;63737;-60
2023/08/22 04:22:04;;;;;;;;;3.00;1.67;;;;;22.59;52.26;101708.78;5070554;27;45478;-60
2023/08/22 04:24:29;;;;;;;;;2.00;1.50;;;;;22.60;52.85;101710.47;5086818;27;46495;-60
2023/08/22 04:26:54;;;;;;;;;3.67;2.00;;;;;22.60;52.98;101713.19;5085769;27;45398;-60
2023/08/22 04:29:20;;;;;;;;;2.00;2.00;;;;;22.59;52.91;101713.31;5064174;27;64611;-60
2023/08/22 04:31:46;;;;;;;;;2.00;2.00;;;;;22.59;52.86;101718.75;5089533;27;45540;-60
2023/08/22 04:34:11;;;;;;;;;2.00;1.75;;;;;22.58;53.15;101720.63;5064293;27;74458;-60
2023/08/22 04:36:36;;;;;;;;;1.33;1.33;;;;;22.56;52.95;101719.88;5085380;27;45550;-60
2023/08/22 04:39:02;;;;;;;;;5.67;2.00;;;;;22.55;52.77;101715.44;5072166;27;61371;-60
2023/08/22 04:41:28;;;;;;;;;2.00;1.50;;;;;22.50;53.33;101714.97;5093709;27;45421;-60
2023/08/22 04:43:53;;;;;;;;;3.00;1.25;;;;;22.53;53.13;101720.16;5088653;27;46255;-60
2023/08/22 04:46:18;;;;;;;;;4.50;3.00;;;;;22.57;52.98;101721.59;5082071;27;71455;-61
2023/08/22 04:48:44;;;;;;;;;3.25;2.25;;;;;22.59;52.92;101714.22;5090290;27;45514;-60
2023/08/22 04:51:09;;;;;;;;;1.67;1.00;;;;;22.60;52.68;101721.31;5087567;27;45460;-60
2023/08/22 04:53:35;;;;;;;;;3.00;3.00;;;;;22.59;53.09;101724.19;5070895;27;74591;-60
2023/08/22 04:56:00;;;;;;;;;2.75;2.00;;;;;22.58;52.50;101720.63;5088449;27;69202;-60
2023/08/22 04:58:25;;;;;;;;;2.33;2.33;;;;;22.57;52.52;101726.19;5079993;27;67544;-60
2023/08/22 05:00:51;;;;;;;;;1.67;1.67;;;;;22.50;52.89;101731.25;5082488;27;45310;-60
2023/08/22 05:03:19;;;;;;;;;2.00;2.00;;;;;22.45;52.80;101737.06;5093000;27;45410;-60
2023/08/22 05:05:44;;;;;;;;;4.67;3.00;;;;;22.41;52.95;101732.91;5081333;27;45406;-60
2023/08/22 05:08:10;;;;;;;;;3.00;2.00;;;;;22.39;53.30;101742.16;5093717;27;45469;-60
2023/08/22 05:10:35;;;;;;;;;1.00;1.00;;;;;22.39;53.19;101737.59;5091993;27;63812;-60
2023/08/22 05:13:00;;;;;;;;;1.00;1.00;;;;;22.43;53.10;101738.19;5055068;28;46458;-60
2023/08/22 05:15:26;;;;;;;;;3.33;2.33;;;;;22.50;53.28;101738.53;5089956;27;66773;-60
2023/08/22 05:17:51;;;;;;;;;1.75;1.75;;;;;22.60;53.19;101743.00;5089357;27;47031;-60
2023/08/22 05:20:16;;;;;;;;;3.67;1.00;;;;;22.65;52.70;101744.50;5083117;27;66843;-60
2023/08/22 05:22:42;;;;;;;;;2.33;2.33;;;;;22.62;53.31;101737.47;5077652;27;46044;-60
2023/08/22 05:25:08;;;;;;;;;2.00;2.00;;;;;22.55;53.40;101733.56;5095244;27;70724;-60
2023/08/22 05:27:33;;;;;;;;;3.00;2.75;;;;;22.54;53.31;101721.88;5090831;27;45518;-60
2023/08/22 05:29:58;;;;;;;;;4.00;3.00;;;;;22.55;52.71;101725.44;5088107;27;66078;-60
2023/08/22 05:32:24;;;;;;;;;2.25;2.25;;;;;22.54;52.60;101724.59;5083954;27;74052;-61
2023/08/22 05:34:49;;;;;;;;;3.67;3.67;;;;;22.57;53.38;101737.03;5095586;27;45627;-60
2023/08/22 05:37:14;;;;;;;;;2.33;2.33;;;;;22.61;53.06;101736.59;5085910;27;58579;-60
2023/08/22 05:39:40;;;;;;;;;4.00;2.00;;;;;22.69;53.14;101738.66;5082824;27;64988;-60
2023/08/22 05:42:05;;;;;;;;;2.00;2.00;;;;;22.78;53.06;101745.13;5084850;27;71850;-61
2023/08/22 05:44:32;;;;;;;;;1.00;1.00;;;;;22.86;53.10;101737.16;5091026;27;45912;-60
2023/08/22 05:46:58;;;;;;;;;4.33;2.33;;;;;22.94;52.82;101740.09;5084629;27;45411;-60
2023/08/22 05:49:23;;;;;;;;;2.75;2.75;;;;;23.01;52.84;101751.25;5089174;27;45537;-60
2023/08/22 05:51:49;;;;;;;;;2.67;2.67;;;;;23.04;52.84;101750.97;5083507;27;47655;-60
2023/08/22 05:54:14;;;;;;;;;6.00;3.00;;;;;23.06;52.77;101745.41;5091884;27;45391;-60
2023/08/22 05:56:39;;;;;;;;;3.33;2.00;;;;;23.07;52.34;101744.41;5087515;27;45686;-61
2023/08/22 05:59:05;;;;;;;;;2.33;2.33;;;;;23.10;52.56;101749.56;5070934;27;69496;-60
2023/08/22 06:01:30;;;;;;;;;2.00;2.00;;;;;23.12;52.43;101753.84;5079878;27;74179;-60
2023/08/22 06:03:55;;;;;;;;;3.67;3.67;;;;;23.22;52.10;101753.06;5087759;27;45468;-60
2023/08/22 06:06:21;;;;;;;;;5.67;2.67;;;;;23.37;51.74;101767.97;5085663;27;45402;-60
2023/08/22 06:08:46;;;;;;;;;2.00;2.00;;;;;23.47;51.90;101770.75;5087645;27;66178;-60
2023/08/22 06:11:11;;;;;;;;;2.25;2.25;;;;;23.57;51.67;101768.91;5084932;27;45498;-60
2023/08/22 06:13:37;;;;;;;;;4.67;2.00;;;;;23.59;51.72;101780.47;5069649;27;62601;-60
2023/08/22 06:16:02;;;;;;;;;5.33;4.00;;;;;23.68;51.81;101777.94;5091022;27;45799;-60
2023/08/22 06:18:28;;;;;;;;;4.33;4.00;;;;;23.73;51.43;101775.69;5087767;27;45478;-60
2023/08/22 06:21:00;;;;;;;;;4.00;2.00;;;;;23.77;50.97;101782.53;5084399;27;45927;-60
2023/08/22 06:23:26;;;;;;;;;3.00;3.00;;;;;23.77;51.47;101787.97;5090059;27;45675;-60
2023/08/22 06:25:51;;;;;;;;;5.33;4.00;;;;;23.76;51.19;101789.81;5083751;27;45543;-58
2023/08/22 06:28:16;;;;;;;;;3.33;3.00;;;;;23.74;51.41;101788.22;5080600;27;45486;-58
2023/08/22 06:30:42;;;;;;;;;2.50;2.50;;;;;23.78;51.33;101785.09;5085757;27;65724;-58
2023/08/22 06:33:07;;;;;;;;;7.00;3.00;;;;;23.85;51.04;101790.00;5066902;27;48167;-58
2023/08/22 06:35:32;;;;;;;;;7.00;3.00;;;;;23.91;51.10;101781.28;5081787;27;62668;-59
2023/08/22 06:37:58;;;;;;;;;4.33;3.00;;;;;24.04;50.58;101781.91;5089940;27;45339;-59
2023/08/22 06:40:23;;;;;;;;;5.00;3.33;;;;;24.22;50.87;101784.78;5092163;27;46136;-59
2023/08/22 06:42:49;;;;;;;;;5.33;2.00;;;;;24.45;50.54;101776.31;5087423;27;60030;-59
2023/08/22 06:45:14;;;;;;;;;3.00;3.00;;;;;25.75;50.07;101775.63;5064848;28;45325;-59
2023/08/22 06:47:40;;;;;;;;;5.00;3.00;;;;;27.93;46.99;101765.81;5079443;27;45297;-60
2023/08/22 06:50:07;;;;;;;;;2.67;2.67;;;;;28.96;44.65;101766.34;5087659;27;45854;-60
2023/08/22 06:52:32;;;;;;;;;2.00;2.00;;;;;29.69;42.29;101775.31;5062164;28;45903;-59
2023/08/22 06:54:58;;;;;;;;;5.67;3.00;;;;;30.08;41.11;101774.41;5079089;27;51884;-59
2023/08/22 06:57:23;;;;;;;;;4.00;3.50;;;;;30.85;40.95;101775.31;5079100;27;45300;-59
2023/08/22 06:59:49;;;;;;;;;6.00;4.00;;;;;33.00;38.63;101795.06;5090086;27;46264;-46
2023/08/22 07:02:14;;;;;;;;;3.00;2.25;;;;;35.33;36.08;101798.44;5082336;27;68362;-45
2023/08/22 07:04:40;;;;;;;;;4.00;4.00;;;;;37.33;32.86;101795.25;5088940;27;45783;-45
2023/08/22 07:07:05;;;;;;;;;4.50;3.50;;;;;39.02;29.88;101794.34;5098937;27;58916;-48
2023/08/22 07:09:30;;;;;;;;;2.75;2.75;;;;;40.41;28.56;101796.22;5094824;27;70828;-46
2023/08/22 07:11:56;;;;;;;;;2.50;2.50;;;;;41.47;26.21;101794.38;5083974;27;71174;-46
2023/08/22 07:14:21;;;;;;;;;3.75;2.25;;;;;42.31;25.31;101793.00;5093308;27;47730;-45
2023/08/22 07:16:46;;;;;;;;;3.50;3.00;;;;;43.14;25.12;101799.13;5084947;27;45390;-46
2023/08/22 07:19:12;;;;;;;;;1.50;1.50;;;;;43.80;22.86;101789.28;5082867;27;46561;-47
2023/08/22 07:21:37;;;;;;;;;5.00;2.25;;;;;44.40;22.37;101781.19;5089403;27;68514;-47
2023/08/22 07:24:03;;;;;;;;;5.50;1.75;;;;;44.89;21.57;101779.69;5081888;27;45379;-47
2023/08/22 07:26:28;;;;;;;;;3.00;2.50;;;;;45.27;21.04;101779.28;5078408;27;45548;-47
2023/08/22 07:28:54;;;;;;;;;2.50;2.50;;;;;45.43;20.03;101774.41;5086211;27;74628;-46
2023/08/22 07:31:19;;;;;;;;;2.75;2.75;;;;;45.60;19.52;101785.25;5085077;27;45663;-46
2023/08/22 07:33:44;;;;;;;;;3.50;2.00;;;;;45.90;19.18;101787.03;5081613;27;65234;-49
2023/08/22 07:36:20;;;;;;;;;3.00;3.00;;;;;46.27;19.19;101784.72;5081679;27;67505;-47
2023/08/22 07:38:45;;;;;;;;;4.25;2.00;;;;;46.58;19.59;101792.06;5078607;28;46500;-50
2023/08/22 07:41:11;;;;;;;;;7.25;3.00;;;;;46.78;18.13;101803.09;5064713;27;45421;-47
2023/08/22 07:43:36;;;;;;;;;2.25;2.25;;;;;47.16;18.19;101800.41;5081025;27;45453;-46
2023/08/22 07:46:02;;;;;;;;;1.25;1.25;;;;;47.47;18.42;101805.63;5080575;27;67668;-48
2023/08/22 07:48:28;;;;;;;;;2.00;2.00;;;;;47.56;17.83;101791.69;5077705;27;46423;-46
2023/08/22 07:50:55;;;;;;;;;2.25;2.25;;;;;47.55;16.90;101798.44;5079322;27;52954;-46
2023/08/22 07:53:20;;;;;;;;;1.75;1.75;;;;;47.69;17.52;101792.91;5080572;27;45483;-44
2023/08/22 07:55:47;;;;;;;;;2.25;2.25;;;;;47.85;17.11;101801.97;5078244;27;45718;-46
2023/08/22 07:58:13;;;;;;;;;2.25;2.25;;;;;47.93;17.33;101804.09;5062405;28;47234;-46
2023/08/22 08:00:38;;;;;;;;;1.75;1.75;;;;;47.94;16.27;101800.13;5082239;27;45370;-45
2023/08/22 08:03:04;;;;;;;;;2.50;2.50;;;;;48.14;16.30;101804.56;5080836;27;61252;-49
2023/08/22 08:05:29;;;;;;;;;1.00;1.00;;;;;48.28;16.32;101806.59;5070781;27;45593;-47
2023/08/22 08:07:55;;;;;;;;;2.50;2.50;;;;;48.40;16.12;101809.78;5093403;27;70971;-48
2023/08/22 08:10:20;;;;;;;;;2.50;1.00;;;;;48.59;16.39;101814.53;5090508;27;45373;-48
2023/08/22 08:12:46;;;;;;;;;4.50;3.00;;;;;48.61;16.23;101813.06;5084249;27;45430;-45
2023/08/22 08:15:11;;;;;;;;;3.00;3.00;;;;;48.61;16.18;101804.59;5089169;27;47710;-46
2023/08/22 08:17:37;;;;;;;;;3.00;3.00;;;;;48.70;15.43;101799.06;5085391;27;45989;-46
2023/08/22 08:20:04;;;;;;;;;4.25;2.00;;;;;48.84;15.08;101808.38;5071390;27;45439;-47
2023/08/22 08:22:29;;;;;;;;;3.75;2.00;;;;;48.83;15.38;101812.34;5095376;27;45405;-49
2023/08/22 08:24:55;;;;;;;;;2.75;2.75;;;;;48.84;15.88;101815.97;5086894;27;45328;-50
2023/08/22 08:27:21;;;;;;;;;4.25;3.25;;;;;48.74;15.17;101816.19;5097085;27;46108;-47
2023/08/22 08:29:46;;;;;;;;;2.75;2.75;;;;;47.17;15.69;101816.16;5089115;27;45402;-47
2023/08/22 08:32:12;;;;;;;;;2.75;2.75;;;;;44.25;17.85;101814.78;5096144;27;45743;-46
2023/08/22 08:34:37;;;;;;;;;2.00;2.00;;;;;42.21;19.32;101822.81;5079160;27;51390;-51
2023/08/22 08:37:04;;;;;;;;;4.25;2.75;;;;;41.94;19.97;101823.66;5082244;27;53257;-46
2023/08/22 08:39:29;;;;;;;;;4.50;3.00;;;;;42.69;19.33;101811.75;5092978;27;45513;-48
2023/08/22 08:41:58;;;;;;;;;1.00;1.00;;;;;43.89;19.18;101823.19;5096871;27;45581;-46
2023/08/22 08:44:25;;;;;;;;;2.00;2.00;;;;;44.88;17.82;101806.06;5081137;27;45479;-47
2023/08/22 08:46:51;;;;;;;;;2.50;2.50;;;;;45.68;17.46;101809.09;5069162;27;46214;-47
2023/08/22 08:49:18;;;;;;;;;1.25;1.25;;;;;46.21;17.40;101800.81;5062827;27;68952;-46
2023/08/22 08:51:44;;;;;;;;;2.25;2.00;;;;;44.93;17.60;101800.44;5065906;27;45510;-46
2023/08/22 08:54:10;;;;;;;;;3.00;2.00;;;;;42.26;19.05;101803.31;5100699;27;65738;-47
2023/08/22 08:56:35;;;;;;;;;3.50;1.75;;;;;40.00;20.42;101799.09;5079815;27;46977;-47
2023/08/22 08:59:01;;;;;;;;;3.00;3.00;;;;;39.94;21.61;101800.13;5100550;27;72325;-47
2023/08/22 09:01:26;;;;;;;;;3.00;1.25;;;;;41.18;21.17;101792.63;5094187;27;45438;-45
2023/08/22 09:03:52;;;;;;;;;2.75;1.25;;;;;42.27;20.30;101799.38;5082129;27;59946;-46
2023/08/22 09:06:17;;;;;;;;;1.25;1.25;;;;;43.01;19.60;101794.84;5095141;27;68021;-48
2023/08/22 09:09:02;;;;;;;;;3.00;3.00;;;;;43.53;18.90;101790.34;5074751;27;45351;-46
2023/08/22 09:11:27;;;;;;;;;2.00;2.00;;;;;43.60;18.29;101790.94;5099092;27;45428;-47
2023/08/22 09:13:53;;;;;;;;;4.75;2.00;;;;;43.40;18.53;101785.25;5099011;27;45648;-46
2023/08/22 09:16:18;;;;;;;;;2.00;2.00;;;;;43.03;18.78;101789.00;5096755;27;46127;-47
2023/08/22 09:18:44;;;;;;;;;4.00;4.00;;;;;42.72;19.66;101781.28;5082106;27;72194;-46
2023/08/22 09:21:10;;;;;;;;;1.50;1.50;;;;;42.28;19.63;101781.53;5100312;27;63797;-47
2023/08/22 09:23:35;;;;;;;;;1.00;1.00;;;;;41.70;19.48;101778.47;5087292;27;45525;-45
2023/08/22 09:26:02;;;;;;;;;2.75;1.25;;;;;41.21;20.41;101785.69;5089552;27;53641;-47
2023/08/22 09:28:28;;;;;;;;;2.75;2.75;;;;;40.93;20.68;101795.06;5089349;27;45363;-46
2023/08/22 09:30:54;;;;;;;;;3.50;1.25;;;;;40.73;20.67;101787.25;5082585;27;45366;-45
2023/08/22 09:33:19;;;;;;;;;2.00;2.00;;;;;40.51;21.09;101786.06;5085582;27;45460;-46
2023/08/22 09:35:45;;;;;;;;;2.25;0.50;;;;;40.07;21.32;101796.19;5100396;27;46216;-48
2023/08/22 09:38:11;;;;;;;;;0.00;0.00;;;;;39.67;21.61;101784.03;5098557;27;45391;-48
2023/08/22 09:40:57;;;;;;;;;1.75;1.75;;;;;39.45;21.74;101789.41;5082192;27;45438;-46
2023/08/22 09:43:22;;;;;;;;;0.00;0.00;;;;;39.20;21.88;101785.03;5080244;27;45452;-50
2023/08/22 09:45:51;;;;;;;;;1.00;1.00;;;;;38.91;22.46;101784.94;5098325;27;57933;-47
2023/08/22 09:48:30;;;;;;;;;1.00;0.75;;;;;38.69;22.29;101784.69;5067967;27;45321;-47
2023/08/22 09:50:57;;;;;;;;;1.50;0.50;;;;;38.47;22.74;101781.66;5082387;27;45762;-47
2023/08/22 09:53:23;;;;;;;;;0.00;0.00;;;;;38.30;22.95;101785.13;5063754;27;45766;-48
2023/08/22 09:55:52;;;;;;;;;4.25;0.00;;;;;38.11;22.49;101789.91;5088437;27;46238;-50
2023/08/22 09:58:18;;;;;;;;;4.25;0.25;;;;;37.92;22.50;101791.91;5064998;27;45429;-47
2023/08/22 10:00:44;;;;;;;;;1.00;0.00;;;;;37.48;22.64;101783.75;5068851;27;45686;-45
2023/08/22 10:03:10;;;;;;;;;0.00;0.00;;;;;37.34;23.05;101780.31;5092384;27;45619;-46
2023/08/22 10:05:36;;;;;;;;;1.75;1.00;;;;;37.27;23.47;101782.28;5068699;27;46976;-47
2023/08/22 10:08:01;;;;;;;;;2.50;1.50;;;;;37.24;23.48;101780.81;5080193;27;69461;-47
2023/08/22 10:10:27;;;;;;;;;0.50;0.50;;;;;37.16;23.54;101783.91;5086060;27;67514;-46
2023/08/22 10:12:53;;;;;;;;;3.25;1.00;;;;;36.99;23.71;101775.38;5093588;27;45591;-47
2023/08/22 10:15:18;;;;;;;;;1.75;1.75;;;;;36.93;23.81;101773.50;5093703;27;52386;-47
2023/08/22 10:17:44;;;;;;;;;2.00;1.25;;;;;36.82;24.11;101764.00;5072935;27;72537;-47
2023/08/22 10:20:12;;;;;;;;;3.00;1.00;;;;;36.70;23.96;101772.25;5074093;27;62916;-46
2023/08/22 10:22:37;;;;;;;;;3.75;1.50;;;;;36.55;24.32;101782.81;5068906;27;45599;-47
2023/08/22 10:25:04;;;;;;;;;4.00;0.75;;;;;36.40;24.22;101770.19;5081366;27;47330;-47
2023/08/22 10:27:30;;;;;;;;;0.00;0.00;;;;;36.38;24.54;101774.25;5092253;27;45300;-46
2023/08/22 10:30:11;;;;;;;;;0.25;0.25;;;;;36.32;24.81;101764.88;5099926;27;45401;-46
2023/08/22 10:32:37;;;;;;;;;1.25;0.00;;;;;36.17;24.96;101769.91;5098335;27;45250;-47
2023/08/22 10:35:07;;;;;;;;;2.75;1.00;;;;;36.11;25.10;101771.66;5096479;27;46161;-48
2023/08/22 10:37:32;;;;;;;;;0.00;0.00;;;;;36.05;24.76;101759.56;5089813;27;45825;-50
2023/08/22 10:39:58;;;;;;;;;2.50;1.25;;;;;35.98;24.96;101763.44;5086351;27;45443;-49
2023/08/22 10:42:25;;;;;;;;;1.00;0.00;;;;;36.04;25.17;101765.34;5099171;27;45473;-46
2023/08/22 10:44:52;;;;;;;;;1.00;1.00;;;;;36.08;24.77;101761.88;5093194;27;47115;-49
2023/08/22 10:47:22;;;;;;;;;1.50;1.50;;;;;36.17;24.96;101758.84;5088515;27;45779;-47
2023/08/22 10:49:49;;;;;;;;;1.25;1.25;;;;;36.25;25.32;101762.16;5092931;27;45565;-48
2023/08/22 10:52:15;;;;;;;;;3.25;1.25;;;;;36.36;24.85;101754.22;5073911;27;45627;-46
2023/08/22 10:54:56;;;;;;;;;2.25;1.75;;;;;36.58;24.94;101760.19;5086467;27;45822;-49
2023/08/22 10:57:21;;;;;;;;;1.00;1.00;;;;;36.81;24.97;101754.00;5091862;27;45326;-47
2023/08/22 10:59:59;;;;;;;;;0.00;0.00;;;;;36.87;24.40;101755.03;5092222;27;59028;-51
2023/08/22 11:02:34;;;;;;;;;3.25;1.00;;;;;36.98;24.80;101759.81;5092554;27;45588;-49
2023/08/22 11:05:04;;;;;;;;;1.50;1.50;;;;;37.23;24.37;101756.09;5096397;27;46142;-49
2023/08/22 11:07:30;;;;;;;;;1.75;1.00;;;;;37.57;24.24;101757.41;5098743;27;45373;-46
2023/08/22 11:09:59;;;;;;;;;1.25;1.25;;;;;37.86;24.27;101757.63;5090570;27;45942;-46
2023/08/22 11:12:27;;;;;;;;;1.00;1.00;;;;;38.05;23.99;101749.22;5094874;27;45550;-46
2023/08/22 11:14:54;;;;;;;;;0.50;0.50;;;;;38.37;23.96;101746.13;5099343;27;45576;-47
2023/08/22 11:17:21;;;;;;;;;1.50;1.00;;;;;38.93;23.34;101752.19;5092072;27;45414;-48
2023/08/22 11:19:47;;;;;;;;;1.00;1.00;;;;;39.46;23.13;101738.25;5089122;27;45366;-47